createdAt,value
2019-05-16T00:01:38.559Z,94935.99
2019-05-16T00:04:08.692Z,94944.06
2019-05-16T00:06:39.032Z,94945.86
2019-05-16T00:09:08.702Z,94945.63
2019-05-16T00:11:38.555Z,94950.88
2019-05-16T00:14:08.432Z,94946.03
2019-05-16T00:16:38.157Z,94944.60
2019-05-16T00:19:09.050Z,94941.58
2019-05-16T00:21:38.695Z,94942.92
2019-05-16T00:24:08.375Z,94938.41
2019-05-16T00:26:38.838Z,94933.37
2019-05-16T00:29:08.777Z,94928.55
2019-05-16T00:31:38.366Z,94925.51
2019-05-16T00:34:09.576Z,94925.19
2019-05-16T00:36:39.142Z,94923.84
2019-05-16T00:39:08.547Z,94918.41
2019-05-16T00:41:38.748Z,94926.16
2019-05-16T00:44:08.512Z,94921.20
2019-05-16T00:46:38.589Z,94915.75
2019-05-16T00:49:08.471Z,94915.52
2019-05-16T00:51:38.008Z,94914.05
2019-05-16T00:54:08.224Z,94913.25
2019-05-16T00:56:38.298Z,94909.56
2019-05-16T00:59:09.211Z,94905.63
2019-05-16T01:01:39.032Z,94900.36
2019-05-16T01:04:11.195Z,94902.26
2019-05-16T01:06:40.609Z,94903.63
2019-05-16T01:09:10.034Z,94891.17
2019-05-16T01:11:39.409Z,94893.20
2019-05-16T01:14:09.211Z,94895.22
2019-05-16T01:16:38.622Z,94894.55
2019-05-16T01:19:08.548Z,94733.89
2019-05-16T01:21:39.182Z,94902.05
2019-05-16T01:24:08.697Z,94893.73
2019-05-16T01:26:39.228Z,94895.08
2019-05-16T01:29:11.633Z,94892.84
2019-05-16T01:31:39.760Z,94898.22
2019-05-16T01:34:09.107Z,94898.56
2019-05-16T01:36:40.784Z,94907.89
2019-05-16T01:39:09.468Z,94889.22
2019-05-16T01:41:38.822Z,94871.80
2019-05-16T01:44:08.263Z,94878.02
2019-05-16T01:46:39.106Z,94880.76
2019-05-16T01:49:08.583Z,94874.83
2019-05-16T01:51:38.130Z,94870.89
2019-05-16T01:54:08.678Z,94867.30
2019-05-16T01:56:38.709Z,94858.98
2019-05-16T01:59:08.826Z,94868.18
2019-05-16T02:01:38.347Z,94874.45
2019-05-16T02:04:11.857Z,94869.53
2019-05-16T02:06:50.419Z,94874.71
2019-05-16T02:09:11.685Z,94883.00
2019-05-16T02:11:41.157Z,94884.59
2019-05-16T02:14:10.523Z,94883.02
2019-05-16T02:16:39.842Z,94892.44
2019-05-16T02:19:09.158Z,94887.51
2019-05-16T02:21:38.932Z,94884.81
2019-05-16T02:24:08.852Z,94875.59
2019-05-16T02:26:38.701Z,94880.09
2019-05-16T02:29:10.350Z,94875.25
2019-05-16T02:31:42.236Z,94877.41
2019-05-16T02:34:11.904Z,94873.36
2019-05-16T02:36:41.530Z,94884.70
2019-05-16T02:39:11.401Z,94884.13
2019-05-16T02:41:42.569Z,94879.20
2019-05-16T02:44:12.309Z,94882.08
2019-05-16T02:46:42.106Z,94878.48
2019-05-16T02:49:11.781Z,94875.80
2019-05-16T02:51:41.262Z,94868.53
2019-05-16T02:54:11.187Z,94871.01
2019-05-16T02:56:41.746Z,94868.96
2019-05-16T02:59:12.022Z,94866.83
2019-05-16T03:01:41.579Z,94873.11
2019-05-16T03:04:11.290Z,94885.48
2019-05-16T03:06:41.234Z,94884.34
2019-05-16T03:09:11.449Z,94887.92
2019-05-16T03:11:42.558Z,94889.03
2019-05-16T03:14:13.357Z,94892.05
2019-05-16T03:16:44.123Z,94888.33
2019-05-16T03:19:15.152Z,94886.11
2019-05-16T03:21:45.159Z,94894.98
2019-05-16T03:24:14.712Z,94890.17
2019-05-16T03:26:44.120Z,94891.95
2019-05-16T03:29:13.463Z,94891.17
2019-05-16T03:31:44.554Z,94884.98
2019-05-16T03:34:16.447Z,94884.34
2019-05-16T03:36:44.918Z,94885.02
2019-05-16T03:39:14.251Z,94888.83
2019-05-16T03:41:43.580Z,94885.31
2019-05-16T03:44:12.980Z,94889.70
2019-05-16T03:46:42.321Z,94895.55
2019-05-16T03:49:11.690Z,94895.45
2019-05-16T03:51:41.707Z,94889.59
2019-05-16T03:54:12.555Z,94893.52
2019-05-16T03:56:42.141Z,94894.66
2019-05-16T03:59:11.433Z,94888.80
2019-05-16T04:01:41.228Z,94885.52
2019-05-16T04:04:12.038Z,94888.92
2019-05-16T04:06:41.913Z,94892.84
2019-05-16T04:09:12.504Z,94891.27
2019-05-16T04:11:42.779Z,94882.27
2019-05-16T04:14:12.515Z,94878.43
2019-05-16T04:16:41.829Z,94883.50
2019-05-16T04:19:11.695Z,94883.38
2019-05-16T04:21:42.326Z,94879.78
2019-05-16T04:24:12.583Z,94881.01
2019-05-16T04:26:42.026Z,94889.42
2019-05-16T04:29:12.117Z,94875.34
2019-05-16T04:31:41.826Z,94880.22
2019-05-16T04:34:11.918Z,94889.22
2019-05-16T04:36:41.445Z,94881.80
2019-05-16T04:39:11.765Z,94878.34
2019-05-16T04:41:41.589Z,94894.41
2019-05-16T04:44:11.822Z,94890.36
2019-05-16T04:46:41.393Z,94888.78
2019-05-16T04:49:11.429Z,94886.72
2019-05-16T04:51:41.617Z,94890.77
2019-05-16T04:54:11.689Z,94881.38
2019-05-16T04:56:41.461Z,94888.44
2019-05-16T04:59:16.213Z,94885.73
2019-05-16T05:01:41.997Z,94889.73
2019-05-16T05:04:15.202Z,94881.04
2019-05-16T05:06:42.453Z,94892.16
2019-05-16T05:09:11.984Z,94891.72
2019-05-16T05:11:41.511Z,94887.70
2019-05-16T05:14:10.862Z,94893.90
2019-05-16T05:16:41.295Z,94889.93
2019-05-16T05:19:11.237Z,94894.41
2019-05-16T05:21:41.257Z,94893.42
2019-05-16T05:24:11.089Z,94900.25
2019-05-16T05:26:41.366Z,94900.78
2019-05-16T05:29:11.074Z,94903.50
2019-05-16T05:31:44.887Z,94900.30
2019-05-16T05:34:13.673Z,94898.57
2019-05-16T05:36:43.066Z,94900.77
2019-05-16T05:39:15.508Z,94888.32
2019-05-16T05:41:43.787Z,94889.22
2019-05-16T05:44:13.150Z,94891.37
2019-05-16T05:46:45.266Z,94895.75
2019-05-16T05:49:14.656Z,94903.95
2019-05-16T05:51:44.000Z,94903.66
2019-05-16T05:54:13.516Z,94903.95
2019-05-16T05:56:42.984Z,94894.11
2019-05-16T05:59:12.562Z,94897.34
2019-05-16T06:01:42.015Z,94901.30
2019-05-16T06:04:11.395Z,94892.98
2019-05-16T06:06:44.516Z,94897.10
2019-05-16T06:09:25.282Z,94893.47
2019-05-16T06:11:43.075Z,94895.91
2019-05-16T06:14:12.367Z,94894.69
2019-05-16T06:16:42.130Z,94892.68
2019-05-16T06:19:11.701Z,94890.67
2019-05-16T06:21:44.478Z,94890.67
2019-05-16T06:24:12.194Z,94890.38
